• Join FlightAware (Why Join?)
  • Login
  • US Flag 
07:59PM EST


 

Airport Tracker/Info


-or-


 

Live Flight TrackerFlight Track Log ✈ N400TM ✈ 17/07/2013 ✈ KMYF - KPRC

Flight Track Log - Related Links

Times and Time Zones

All times are in EDT time to prevent confusion due to time zone crossing. See the N400TM flight status page for this flight to view local times or setup timezone preferences in your user account.

Time Position Orientation Groundspeed Altitude Reporting Facility
EDT Latitude Longitude Course Direction KTS MPH feet Rate Location/Type
01:48PM 32.8333 -117.2167 301° West 125 144 2,900  Level Southern California TRACON
01:49PM 32.8333 -117.2500 270° West 126 145 4,000 900 Climbing Southern California TRACON
01:50PM 32.8833 -117.2667 344° North 136 157 4,900 960 Climbing Southern California TRACON
01:52PM 32.9711 -116.8434 52° Northeast  Level FlightAware Approximate
01:52PM 32.9208 -117.1664 66° East 135 155 7,500  Level Los Angeles Center
01:53PM 32.9350 -117.1281 66° East 141 162 8,300 780 Climbing Los Angeles Center
01:55PM 32.9528 -117.0839 64° Northeast 144 166 9,300 1,020 Climbing Los Angeles Center
01:56PM 32.9758 -117.0200 67° East 149 171 10,700 1,140 Climbing Los Angeles Center
01:57PM 33.0050 -116.9842 46° Northeast 148 170 11,700 960 Climbing Los Angeles Center
01:58PM 33.0333 -116.9472 48° Northeast 151 174 12,700 960 Climbing Los Angeles Center
01:59PM 33.0614 -116.9103 48° Northeast 150 173 13,700 840 Climbing Los Angeles Center
02:00PM 33.0900 -116.8728 48° Northeast 151 174 14,500 660 Climbing Los Angeles Center
02:01PM 33.1239 -116.8225 51° Northeast 158 182 15,200 240 Climbing Los Angeles Center
02:02PM 33.1586 -116.7711 51° Northeast 186 214 15,100 -60 Descending Los Angeles Center
02:03PM 33.1964 -116.7189 49° Northeast 202 232 15,100  Level Los Angeles Center
02:04PM 33.2344 -116.6675 48° Northeast 206 237 15,100  Level Los Angeles Center
02:05PM 33.2736 -116.6150 48° Northeast 209 241 15,100  Level Los Angeles Center
02:06PM 33.3125 -116.5633 48° Northeast 208 239 15,100 -60 Level Los Angeles Center
02:08PM 33.3936 -116.4469 50° Northeast 206 237 15,000  Descending Los Angeles Center
02:09PM 33.4325 -116.3978 47° Northeast 205 236 15,100  Climbing Los Angeles Center
02:10PM 33.4769 -116.3367 49° Northeast 202 232 15,100  Level Los Angeles Center
02:11PM 33.5117 -116.2833 52° Northeast 202 232 15,100  Level Los Angeles Center
02:12PM 33.5414 -116.2414 50° Northeast 204 235 15,100  Level Los Angeles Center
02:13PM 33.5931 -116.1656 51° Northeast 208 239 15,100  Level Los Angeles Center
02:14PM 33.6294 -116.1139 50° Northeast 205 236 15,100  Level Los Angeles Center
02:16PM 33.6664 -116.0619 49° Northeast 204 235 15,100  Level Los Angeles Center
02:17PM 33.7031 -115.9947 57° Northeast 205 236 15,200  Climbing Los Angeles Center
02:18PM 33.7125 -115.9272 80° East 202 232 15,100 -60 Descending Los Angeles Center
02:19PM 33.7244 -115.8611 78° East 204 235 15,100  Level Los Angeles Center
02:20PM 33.7358 -115.7808 80° East 202 232 15,100  Level Los Angeles Center
02:21PM 33.7417 -115.7144 84° East 201 231 15,100  Level Los Angeles Center
02:22PM 33.7792 -115.6636 48° Northeast 203 234 15,100  Level Los Angeles Center
02:23PM 33.8183 -115.6153 46° Northeast 201 231 15,100  Level Los Angeles Center
02:24PM 33.8589 -115.5694 43° Northeast 201 231 15,100  Level Los Angeles Center
02:25PM 33.8978 -115.5194 47° Northeast 203 234 15,100 -60 Level Los Angeles Center
02:26PM 33.9450 -115.4614 46° Northeast 203 234 15,000 -60 Descending Los Angeles Center
02:27PM 33.9856 -115.4133 44° Northeast 204 235 15,000  Level Los Angeles Center
02:28PM 34.0239 -115.3636 47° Northeast 201 231 15,000  Level Los Angeles Center
02:29PM 34.0653 -115.3197 41° Northeast 200 230 15,000  Level Los Angeles Center
02:30PM 34.1044 -115.2706 46° Northeast 202 232 15,000 60 Level Los Angeles Center
02:31PM 34.1525 -115.2161 43° Northeast 199 229 15,200 60 Climbing Los Angeles Center
02:32PM 34.1928 -115.1708 43° Northeast 198 228 15,200  Level Los Angeles Center
02:33PM 34.2317 -115.1236 45° Northeast 199 229 15,200  Level Los Angeles Center
02:34PM 34.2703 -115.0775 45° Northeast 196 226 15,300  Climbing Los Angeles Center
02:35PM 34.3106 -115.0303 44° Northeast 200 230 15,200  Descending Los Angeles Center
02:37PM 34.3497 -114.9844 44° Northeast 198 228 15,300  Climbing Los Angeles Center
02:38PM 34.3994 -114.9217 46° Northeast 201 231 15,300  Level Los Angeles Center
02:39PM 34.4403 -114.8750 43° Northeast 201 231 15,300  Level Los Angeles Center
02:40PM 34.4869 -114.8169 46° Northeast 200 230 15,300  Level Los Angeles Center
02:41PM 34.5264 -114.7694 45° Northeast 199 229 15,300  Level Los Angeles Center
02:42PM 34.5653 -114.7203 46° Northeast 202 232 15,300  Level Los Angeles Center
02:43PM 34.6031 -114.6708 47° Northeast 201 231 15,300 -60 Level Los Angeles Center
02:44PM 34.6428 -114.6225 45° Northeast 201 231 15,200  Descending Los Angeles Center
02:45PM 34.6819 -114.5725 46° Northeast 205 236 15,300  Climbing Los Angeles Center
02:46PM 34.7294 -114.5139 45° Northeast 202 232 15,200 -60 Descending Los Angeles Center
02:47PM 34.7681 -114.4633 47° Northeast 203 234 15,200  Level Los Angeles Center
02:48PM 34.7678 -114.3836 90° East 204 235 15,300  Climbing Los Angeles Center
02:49PM 34.7597 -114.3186 99° East 197 227 15,200  Descending Los Angeles Center
02:50PM 34.7594 -114.2511 90° East 198 228 15,300  Climbing Los Angeles Center
02:51PM 34.7575 -114.1839 92° East 199 229 15,200  Descending Los Angeles Center
02:52PM 34.7550 -114.1044 92° East 197 227 15,300  Climbing Los Angeles Center
02:53PM 34.7536 -114.0369 91° East 197 227 15,300  Level Los Angeles Center
02:54PM 34.7517 -113.9778 92° East 200 230 15,300  Level Los Angeles Center
02:55PM 34.7483 -113.8986 93° East 198 228 15,300  Level Los Angeles Center
02:56PM 34.7478 -113.8322 91° East 198 228 15,300  Level Los Angeles Center
02:58PM 34.7461 -113.7633 92° East 204 235 15,300  Level Los Angeles Center
02:59PM 34.7464 -113.6819 90° East 202 232 15,400  Climbing Albuquerque Center
03:00PM 34.7442 -113.6053 92° East 193 222 15,400  Level Albuquerque Center
03:01PM 34.7411 -113.5419 93° East 190 219 15,400 -60 Level Albuquerque Center
03:02PM 34.7358 -113.4772 96° East 192 221 15,300 -120 Descending Albuquerque Center
03:03PM 34.7347 -113.4108 91° East 197 227 15,200 -120 Descending Albuquerque Center
03:04PM 34.7294 -113.3467 96° East 195 224 15,100 -300 Descending Albuquerque Center
03:05PM 34.7281 -113.2822 91° East 193 222 14,600 -720 Descending Albuquerque Center
03:06PM 34.7297 -113.2122 88° East 203 234 13,700 -1,020 Descending Albuquerque Center
03:07PM 34.7272 -113.1267 92° East 211 243 12,600 -960 Descending Albuquerque Center
03:08PM 34.7242 -113.0558 93° East 211 243 11,800 -840 Descending Albuquerque Center
03:09PM 34.7211 -112.9875 93° East 207 238 10,900 -840 Descending Albuquerque Center
03:10PM 34.7192 -112.9189 92° East 206 237 10,100 -420 Descending Albuquerque Center
03:11PM 34.7169 -112.8550 92° East 199 229 10,100 -120 Level Albuquerque Center
03:12PM 34.7153 -112.7872 92° East 178 205 9,900 -120 Descending Albuquerque Center
03:13PM 34.7022 -112.7317 106° East 176 203 9,900 -120 Level Albuquerque Center
03:14PM 34.6781 -112.6864 123° Southeast 167 192 9,700 -480 Descending Albuquerque Center
03:15PM 34.6453 -112.6389 130° Southeast 174 200 9,000 -780 Descending Albuquerque Center
03:16PM 34.6058 -112.5925 136° Southeast 188 216 8,100 -840 Descending Albuquerque Center
03:17PM 34.5678 -112.5450 134° Southeast 194 223 7,300 -540 Descending Albuquerque Center
03:18PM 34.5836 -112.4956 69° East 176 203 7,100 -420 Descending Albuquerque Center
03:19PM 34.6086 -112.4694 41° Northeast 140 161 6,500 -780 Descending Albuquerque Center
03:20PM 34.6333 -112.4428 42° Northeast 126 145 5,600 -900 Descending Albuquerque Center